createdAt,value
2018-11-05T00:04:35.246Z,11.00
2018-11-05T00:09:38.288Z,11.00
2018-11-05T00:14:41.339Z,11.00
2018-11-05T00:19:44.346Z,11.00
2018-11-05T00:24:47.364Z,11.00
2018-11-05T00:29:50.454Z,11.00
2018-11-05T00:34:53.539Z,11.00
2018-11-05T00:39:56.587Z,11.00
2018-11-05T00:44:59.623Z,11.00
2018-11-05T00:50:02.886Z,11.00
2018-11-05T00:55:06.152Z,11.00
2018-11-05T01:00:15.160Z,11.00
2018-11-05T01:05:18.357Z,11.00
2018-11-05T01:10:21.371Z,11.10
2018-11-05T01:15:24.422Z,11.00
2018-11-05T01:20:27.511Z,11.10
2018-11-05T01:25:30.581Z,11.10
2018-11-05T01:30:33.620Z,11.10
2018-11-05T01:35:36.647Z,11.10
2018-11-05T01:40:39.704Z,11.10
2018-11-05T01:45:42.698Z,11.10
2018-11-05T01:50:45.727Z,11.10
2018-11-05T01:55:48.820Z,11.10
2018-11-05T02:00:52.090Z,11.20
2018-11-05T02:05:55.242Z,11.10
2018-11-05T02:10:58.269Z,11.20
2018-11-05T02:16:01.473Z,11.10
2018-11-05T02:21:04.452Z,11.10
2018-11-05T02:26:07.664Z,11.20
2018-11-05T02:31:11.528Z,11.20
2018-11-05T02:36:14.572Z,11.20
2018-11-05T02:41:17.776Z,11.20
2018-11-05T02:46:20.820Z,11.20
2018-11-05T02:51:23.872Z,11.20
2018-11-05T02:56:26.911Z,11.20
2018-11-05T03:01:29.951Z,11.20
2018-11-05T03:06:32.971Z,11.20
2018-11-05T03:11:36.039Z,11.20
2018-11-05T03:16:39.079Z,11.20
2018-11-05T03:21:42.131Z,11.20
2018-11-05T03:26:45.210Z,11.20
2018-11-05T03:31:48.345Z,11.20
2018-11-05T03:36:51.394Z,11.20
2018-11-05T03:41:54.441Z,11.20
2018-11-05T03:46:57.694Z,11.20
2018-11-05T03:52:00.985Z,11.20
2018-11-05T03:57:04.039Z,11.10
2018-11-05T04:02:09.084Z,11.20
2018-11-05T04:07:12.399Z,11.10
2018-11-05T04:12:15.465Z,11.10
2018-11-05T04:17:19.947Z,11.10
2018-11-05T04:22:23.005Z,11.10
2018-11-05T04:27:26.128Z,11.10
2018-11-05T04:32:29.146Z,11.10
2018-11-05T04:37:32.159Z,11.00
2018-11-05T04:42:35.190Z,11.00
2018-11-05T04:47:38.385Z,11.00
2018-11-05T04:52:42.105Z,10.90
2018-11-05T04:57:45.212Z,10.90
2018-11-05T05:02:48.238Z,10.90
2018-11-05T05:07:51.289Z,10.90
2018-11-05T05:12:54.323Z,10.80
2018-11-05T05:17:57.373Z,10.80
2018-11-05T05:23:00.521Z,10.80
2018-11-05T05:28:03.532Z,10.80
2018-11-05T05:33:06.642Z,10.80
2018-11-05T05:38:09.682Z,10.80
2018-11-05T05:43:12.976Z,10.80
2018-11-05T05:48:15.994Z,10.80
2018-11-05T05:53:19.144Z,10.80
2018-11-05T05:58:22.215Z,10.80
2018-11-05T06:03:25.392Z,10.70
2018-11-05T06:08:28.416Z,10.80
2018-11-05T06:13:31.496Z,10.70
2018-11-05T06:18:34.513Z,10.70
2018-11-05T06:23:37.572Z,10.70
2018-11-05T06:28:40.712Z,10.70
2018-11-05T06:33:43.732Z,10.70
2018-11-05T06:38:46.763Z,10.70
2018-11-05T06:43:49.993Z,10.70
2018-11-05T06:48:53.030Z,10.70
2018-11-05T06:53:56.541Z,10.70
2018-11-05T06:58:59.734Z,10.60
2018-11-05T07:04:02.840Z,10.60
2018-11-05T07:09:09.004Z,10.50
2018-11-05T07:14:12.112Z,10.50
2018-11-05T07:19:15.337Z,10.50
2018-11-05T07:24:18.222Z,10.60
2018-11-05T07:29:21.240Z,10.60
2018-11-05T07:34:24.357Z,10.60
2018-11-05T07:39:27.376Z,10.60
2018-11-05T07:44:30.421Z,10.70
2018-11-05T07:49:33.735Z,10.70
2018-11-05T07:54:36.847Z,10.90
2018-11-05T07:59:39.951Z,11.00
2018-11-05T08:04:42.983Z,11.00
2018-11-05T08:09:46.049Z,10.90
2018-11-05T08:14:49.124Z,10.90
2018-11-05T08:19:52.143Z,10.90
2018-11-05T08:24:55.285Z,11.00
2018-11-05T08:29:58.351Z,11.00
2018-11-05T08:35:01.429Z,11.10
2018-11-05T08:40:06.424Z,11.30
2018-11-05T08:45:09.589Z,11.30
2018-11-05T08:50:13.841Z,11.50
2018-11-05T08:55:18.188Z,11.40
2018-11-05T09:00:26.615Z,11.30
2018-11-05T09:05:29.705Z,11.30
2018-11-05T09:10:32.950Z,11.50
2018-11-05T09:15:35.768Z,11.70
2018-11-05T09:20:38.804Z,11.90
2018-11-05T09:25:41.857Z,12.10
2018-11-05T09:30:44.900Z,12.10
2018-11-05T09:35:47.942Z,12.20
2018-11-05T09:40:50.971Z,12.20
2018-11-05T09:45:54.091Z,12.30
2018-11-05T09:50:57.130Z,12.40
2018-11-05T09:56:00.211Z,12.60
2018-11-05T10:01:03.279Z,12.80
2018-11-05T10:06:06.781Z,12.80
2018-11-05T10:11:09.812Z,12.80
2018-11-05T10:16:12.904Z,12.80
2018-11-05T10:21:15.895Z,12.80
2018-11-05T10:26:18.986Z,12.90
2018-11-05T10:31:26.071Z,13.00
2018-11-05T10:36:29.116Z,13.20
2018-11-05T10:41:32.157Z,13.30
2018-11-05T10:46:35.287Z,13.40
2018-11-05T10:51:38.503Z,13.40
2018-11-05T10:56:41.483Z,13.40
2018-11-05T11:01:50.074Z,13.50
2018-11-05T11:06:53.128Z,13.50
2018-11-05T11:11:56.556Z,13.70
2018-11-05T11:16:59.663Z,13.70
2018-11-05T11:22:02.723Z,13.70
2018-11-05T11:27:05.950Z,13.70
2018-11-05T11:32:09.096Z,13.70
2018-11-05T11:37:12.365Z,13.70
2018-11-05T11:42:15.320Z,13.80
2018-11-05T11:47:18.384Z,13.90
2018-11-05T11:52:21.461Z,13.90
2018-11-05T11:57:24.566Z,13.90
2018-11-05T12:02:27.617Z,14.10
2018-11-05T12:07:30.671Z,14.10
2018-11-05T12:12:33.714Z,14.10
2018-11-05T12:17:36.913Z,14.10
2018-11-05T12:22:40.026Z,14.10
2018-11-05T12:27:43.128Z,14.20
2018-11-05T12:32:47.073Z,14.30
2018-11-05T12:37:51.393Z,14.50
2018-11-05T12:42:54.600Z,14.70
2018-11-05T12:47:57.873Z,14.70
2018-11-05T12:53:01.001Z,14.70
2018-11-05T12:58:04.123Z,14.70
2018-11-05T13:03:07.132Z,14.70
2018-11-05T13:08:10.265Z,14.50
2018-11-05T13:13:13.369Z,14.50
2018-11-05T13:18:16.397Z,14.40
2018-11-05T13:23:25.037Z,14.50
2018-11-05T13:28:28.435Z,14.80
2018-11-05T13:33:31.453Z,15.10
2018-11-05T13:38:34.738Z,15.10
2018-11-05T13:43:37.720Z,15.10
2018-11-05T13:48:41.534Z,15.00
2018-11-05T13:53:43.864Z,14.90
2018-11-05T13:58:46.872Z,14.60
2018-11-05T14:03:49.934Z,14.40
2018-11-05T14:08:52.985Z,14.30
2018-11-05T14:13:56.063Z,14.20
2018-11-05T14:18:59.175Z,14.00
2018-11-05T14:24:02.244Z,13.90
2018-11-05T14:29:05.731Z,13.80
2018-11-05T14:34:08.365Z,13.70
2018-11-05T14:39:13.390Z,13.60
2018-11-05T14:44:16.488Z,13.50
2018-11-05T14:49:19.587Z,13.50
2018-11-05T14:54:22.635Z,13.20
2018-11-05T14:59:25.847Z,13.00
2018-11-05T15:04:28.936Z,12.90
2018-11-05T15:09:32.775Z,12.80
2018-11-05T15:14:35.853Z,12.80
2018-11-05T15:19:39.440Z,12.90
2018-11-05T15:24:41.893Z,12.90
2018-11-05T15:29:44.920Z,12.90
2018-11-05T15:34:47.970Z,12.90
2018-11-05T15:39:50.984Z,13.10
2018-11-05T15:44:54.039Z,13.00
2018-11-05T15:49:57.120Z,13.10
2018-11-05T15:55:00.150Z,13.20
2018-11-05T16:00:03.397Z,13.20
2018-11-05T16:05:06.493Z,13.00
2018-11-05T16:10:09.543Z,12.90
2018-11-05T16:15:13.145Z,12.80
2018-11-05T16:20:17.476Z,12.60
2018-11-05T16:25:20.537Z,12.60
2018-11-05T16:30:23.693Z,12.50
2018-11-05T16:35:26.756Z,12.20
2018-11-05T16:40:29.711Z,12.00
2018-11-05T16:45:32.801Z,11.80
2018-11-05T16:50:35.843Z,11.60
2018-11-05T16:55:38.888Z,11.50
2018-11-05T17:00:42.021Z,11.30
2018-11-05T17:05:44.965Z,11.30
2018-11-05T17:10:47.978Z,11.20
2018-11-05T17:15:51.003Z,11.20
2018-11-05T17:20:54.040Z,11.20
2018-11-05T17:25:57.077Z,11.10
2018-11-05T17:31:00.114Z,11.00
2018-11-05T17:36:03.169Z,10.90
2018-11-05T17:41:06.615Z,10.90
2018-11-05T17:46:09.755Z,10.70
2018-11-05T17:51:12.862Z,10.50
2018-11-05T17:56:15.921Z,10.40
2018-11-05T18:01:18.960Z,10.40
2018-11-05T18:06:21.994Z,10.50
2018-11-05T18:11:25.061Z,10.40
2018-11-05T18:16:28.127Z,10.40
2018-11-05T18:21:31.423Z,10.50
2018-11-05T18:26:34.458Z,10.60
2018-11-05T18:31:37.499Z,10.80
2018-11-05T18:36:40.662Z,10.80
2018-11-05T18:41:43.783Z,10.60
2018-11-05T18:46:46.826Z,10.40
2018-11-05T18:51:49.942Z,10.20
2018-11-05T18:56:52.963Z,10.10
2018-11-05T19:01:56.086Z,9.90
2018-11-05T19:06:59.070Z,9.80
2018-11-05T19:12:02.102Z,9.70
2018-11-05T19:17:05.230Z,9.60
2018-11-05T19:22:08.315Z,9.50
2018-11-05T19:27:11.456Z,9.50
2018-11-05T19:32:14.508Z,9.40
2018-11-05T19:37:17.723Z,9.20
2018-11-05T19:42:20.929Z,9.10
2018-11-05T19:47:23.815Z,9.00
2018-11-05T19:52:26.960Z,9.00
2018-11-05T19:57:30.067Z,8.90
2018-11-05T20:02:33.184Z,8.90
2018-11-05T20:07:36.429Z,8.80
2018-11-05T20:12:39.484Z,8.80
2018-11-05T20:17:43.469Z,8.80
2018-11-05T20:22:46.548Z,8.80
2018-11-05T20:27:49.568Z,8.80
2018-11-05T20:32:54.175Z,8.80
2018-11-05T20:37:56.811Z,8.80
2018-11-05T20:42:59.853Z,8.90
2018-11-05T20:48:02.892Z,9.00
2018-11-05T20:53:06.000Z,9.10
2018-11-05T20:58:09.058Z,9.30
2018-11-05T21:03:12.169Z,9.60
2018-11-05T21:08:15.208Z,9.80
2018-11-05T21:13:18.288Z,10.10
2018-11-05T21:18:23.154Z,10.40
2018-11-05T21:23:26.218Z,10.50
2018-11-05T21:28:29.291Z,10.60
2018-11-05T21:33:32.329Z,10.80
2018-11-05T21:38:35.386Z,11.00
2018-11-05T21:43:38.757Z,11.20
2018-11-05T21:48:41.871Z,11.40
2018-11-05T21:53:44.991Z,11.60
2018-11-05T21:58:47.973Z,11.70
2018-11-05T22:03:51.000Z,11.80
2018-11-05T22:08:54.006Z,11.80
2018-11-05T22:13:57.091Z,11.80
2018-11-05T22:19:00.134Z,11.80
2018-11-05T22:24:03.195Z,11.70
2018-11-05T22:29:06.299Z,11.70
2018-11-05T22:34:09.334Z,11.70
2018-11-05T22:39:12.401Z,11.70
2018-11-05T22:44:15.453Z,11.70
2018-11-05T22:49:18.471Z,11.70
2018-11-05T22:54:21.530Z,11.70
2018-11-05T22:59:24.569Z,11.60
2018-11-05T23:04:27.603Z,11.50
2018-11-05T23:09:30.651Z,11.40
2018-11-05T23:14:34.572Z,11.40
2018-11-05T23:19:38.163Z,11.40
2018-11-05T23:24:41.209Z,11.40
2018-11-05T23:29:44.248Z,11.40
2018-11-05T23:34:47.308Z,11.40
2018-11-05T23:39:50.359Z,11.30
2018-11-05T23:44:53.414Z,11.30
2018-11-05T23:49:57.068Z,11.30
2018-11-05T23:55:00.114Z,11.20
